Time;durP1;ratioP1;P1;durP2;ratioP2;P2;SDS_P1;SDS_P2;PMS_P1;PMS_P2;Temp;Humidity;BMP_temperature;BMP_pressure;BME280_temperature;BME280_humidity;BME280_pressure;Samples;Min_cycle;Max_cycle;Signal;HPM_P1;HPM_P2
2023/05/13 00:02:05;;;;;;;11.38;10.15;;;15.80;51.00;;;;;;4985412;28;118825;-81
2023/05/13 00:04:38;;;;;;;9.07;7.63;;;15.80;52.20;;;;;;4982944;28;114845;-81
2023/05/13 00:07:05;;;;;;;10.60;8.30;;;15.70;51.40;;;;;;4984741;28;114702;-80
2023/05/13 00:09:33;;;;;;;10.70;7.75;;;15.80;51.50;;;;;;4984947;28;114558;-83
2023/05/13 00:12:00;;;;;;;8.75;7.32;;;15.70;51.60;;;;;;5000765;28;114249;-82
2023/05/13 00:14:28;;;;;;;7.85;6.15;;;15.70;51.70;;;;;;4983463;28;114948;-81
2023/05/13 00:16:57;;;;;;;15.43;12.52;;;15.70;51.30;;;;;;4999475;28;114818;-79
2023/05/13 00:19:24;;;;;;;12.15;10.45;;;15.80;52.80;;;;;;4984320;28;114325;-79
2023/05/13 00:21:51;;;;;;;12.82;10.00;;;15.70;52.70;;;;;;4984756;28;114377;-81
2023/05/13 00:24:19;;;;;;;9.95;8.52;;;15.70;52.60;;;;;;4983560;28;115419;-81
2023/05/13 00:26:46;;;;;;;7.57;6.07;;;15.70;52.10;;;;;;4989644;28;114705;-80
2023/05/13 00:29:13;;;;;;;12.13;10.05;;;15.70;51.50;;;;;;4969761;28;114318;-80
2023/05/13 00:31:41;;;;;;;11.15;9.30;;;15.70;52.50;;;;;;4987860;28;114214;-79
2023/05/13 00:34:08;;;;;;;11.27;8.35;;;15.70;52.30;;;;;;4987494;28;114854;-80
2023/05/13 00:36:35;;;;;;;10.50;8.93;;;15.70;52.20;;;;;;4986220;28;116040;-80
2023/05/13 00:39:02;;;;;;;13.52;10.90;;;15.70;52.10;;;;;;4986828;28;114531;-80
2023/05/13 00:41:30;;;;;;;8.20;7.10;;;15.70;52.30;;;;;;5003806;28;114434;-80
2023/05/13 00:43:58;;;;;;;10.77;8.32;;;15.70;51.80;;;;;;4987651;28;115182;-80
2023/05/13 00:46:26;;;;;;;6.78;6.00;;;15.70;52.10;;;;;;4980031;28;118231;-80
2023/05/13 00:48:53;;;;;;;8.48;6.22;;;15.70;51.60;;;;;;4983918;28;114260;-81
2023/05/13 00:51:21;;;;;;;12.20;10.45;;;15.70;51.50;;;;;;4968699;28;114620;-81
2023/05/13 00:53:48;;;;;;;7.80;6.03;;;15.70;52.20;;;;;;4986842;28;116442;-80
2023/05/13 00:56:23;;;;;;;11.02;9.52;;;15.70;51.50;;;;;;5002620;28;114801;-81
2023/05/13 00:58:50;;;;;;;11.87;9.50;;;15.70;52.20;;;;;;4987560;28;114170;-80
2023/05/13 01:01:30;;;;;;;8.45;6.82;;;15.70;52.00;;;;;;4988345;28;114155;-80
2023/05/13 01:04:24;;;;;;;12.52;10.13;;;15.70;51.60;;;;;;4985693;28;114957;-80
2023/05/13 01:07:21;;;;;;;9.15;7.50;;;15.60;52.40;;;;;;4986913;28;116095;-80
2023/05/13 01:10:07;;;;;;;11.90;9.13;;;15.50;52.10;;;;;;5003182;28;114441;-81
2023/05/13 01:12:36;;;;;;;11.43;7.43;;;15.50;52.20;;;;;;4988202;28;114388;-80
2023/05/13 01:15:15;;;;;;;9.93;8.20;;;15.50;52.00;;;;;;4986502;28;114966;-80
2023/05/13 01:18:14;;;;;;;8.32;6.78;;;15.60;51.90;;;;;;4986215;28;114591;-80
2023/05/13 01:20:42;;;;;;;8.80;7.18;;;15.60;51.80;;;;;;5003065;28;114298;-80
2023/05/13 01:23:10;;;;;;;9.02;7.00;;;15.50;51.80;;;;;;4987436;28;114197;-81
2023/05/13 01:25:40;;;;;;;10.77;9.18;;;15.50;51.70;;;;;;4985457;28;116203;-81
2023/05/13 01:28:07;;;;;;;10.27;8.00;;;15.60;52.00;;;;;;4986115;28;114565;-81
2023/05/13 01:30:36;;;;;;;8.93;6.88;;;15.60;51.80;;;;;;5002373;28;114863;-80
2023/05/13 01:33:04;;;;;;;7.95;6.15;;;15.60;51.60;;;;;;4986748;28;114390;-81
2023/05/13 01:35:32;;;;;;;10.57;8.73;;;15.60;51.60;;;;;;5002345;28;114904;-81
2023/05/13 01:38:02;;;;;;;9.00;7.28;;;15.60;51.90;;;;;;4969372;28;115799;-81
2023/05/13 01:40:38;;;;;;;9.70;7.28;;;15.60;51.70;;;;;;4986920;28;114335;-81
2023/05/13 01:43:06;;;;;;;9.60;7.95;;;15.60;51.70;;;;;;4970540;28;114490;-80
2023/05/13 01:45:35;;;;;;;9.70;7.63;;;15.50;51.90;;;;;;4985572;28;115226;-81
2023/05/13 01:48:03;;;;;;;10.15;8.27;;;15.60;51.80;;;;;;4969377;28;114680;-80
2023/05/13 01:50:40;;;;;;;13.52;9.23;;;15.50;51.90;;;;;;5003218;28;118419;-80
2023/05/13 01:53:07;;;;;;;9.90;7.55;;;15.50;52.00;;;;;;4986479;28;114498;-81
2023/05/13 01:55:36;;;;;;;10.70;7.45;;;15.50;51.90;;;;;;5002318;28;115128;-80
2023/05/13 01:58:04;;;;;;;9.32;8.00;;;15.50;51.90;;;;;;4985328;28;114721;-80
2023/05/13 02:00:31;;;;;;;9.80;7.88;;;15.50;52.00;;;;;;5003115;28;114619;-81
2023/05/13 02:02:58;;;;;;;8.88;7.45;;;15.50;52.00;;;;;;4951191;28;114409;-81
2023/05/13 02:05:27;;;;;;;9.45;7.55;;;15.50;52.00;;;;;;5002041;28;114973;-81
2023/05/13 02:07:55;;;;;;;9.13;8.00;;;15.50;51.90;;;;;;4985085;28;115145;-81
2023/05/13 02:10:22;;;;;;;10.57;8.85;;;15.50;52.00;;;;;;4986095;28;114359;-81
2023/05/13 02:12:50;;;;;;;11.52;9.15;;;15.50;52.10;;;;;;4990796;28;114360;-81
2023/05/13 02:15:18;;;;;;;8.10;6.88;;;15.50;52.00;;;;;;4987876;28;114214;-81
2023/05/13 02:17:45;;;;;;;11.15;9.35;;;15.50;51.80;;;;;;4986786;28;114624;-81
2023/05/13 02:20:13;;;;;;;9.77;7.30;;;15.50;52.10;;;;;;4985079;28;116317;-81
2023/05/13 02:22:40;;;;;;;11.73;9.23;;;15.50;51.80;;;;;;5002621;28;114390;-81
2023/05/13 02:25:08;;;;;;;9.18;8.07;;;15.50;52.10;;;;;;4984643;28;115168;-81
2023/05/13 02:27:37;;;;;;;9.20;7.60;;;15.50;51.90;;;;;;5001349;28;115847;-81
2023/05/13 02:30:05;;;;;;;10.40;8.07;;;15.50;52.00;;;;;;5002351;28;114452;-81
2023/05/13 02:32:32;;;;;;;11.55;9.00;;;15.50;51.90;;;;;;5002712;28;114437;-81
2023/05/13 02:34:59;;;;;;;10.10;8.50;;;15.50;52.00;;;;;;4985352;28;114941;-81
2023/05/13 02:37:27;;;;;;;12.13;10.35;;;15.50;51.90;;;;;;5002454;28;114604;-81
2023/05/13 02:40:00;;;;;;;12.43;8.27;;;15.50;52.10;;;;;;5002522;28;114408;-80
2023/05/13 02:42:28;;;;;;;10.15;8.20;;;15.50;51.90;;;;;;4985861;28;114219;-81
2023/05/13 02:44:56;;;;;;;10.82;8.70;;;15.50;52.00;;;;;;4984786;28;114947;-81
2023/05/13 02:47:24;;;;;;;10.43;8.85;;;15.50;51.90;;;;;;5000834;28;114654;-81
2023/05/13 02:49:55;;;;;;;8.48;7.20;;;15.60;52.00;;;;;;5002668;28;114252;-81
2023/05/13 02:52:22;;;;;;;12.43;10.85;;;15.50;51.80;;;;;;4985196;28;114625;-81
2023/05/13 02:54:50;;;;;;;13.30;11.25;;;15.50;52.20;;;;;;5001513;28;115262;-80
2023/05/13 02:57:18;;;;;;;9.38;8.00;;;15.40;52.40;;;;;;5001267;28;114518;-80
2023/05/13 02:59:45;;;;;;;10.63;8.82;;;15.40;52.10;;;;;;4985899;28;114554;-80
2023/05/13 03:02:12;;;;;;;11.15;9.60;;;15.30;52.10;;;;;;4987017;28;114405;-80
2023/05/13 03:04:40;;;;;;;13.57;8.63;;;15.40;52.30;;;;;;4984768;28;115257;-80
2023/05/13 03:07:07;;;;;;;10.40;8.68;;;15.40;52.30;;;;;;4985823;28;115168;-81
2023/05/13 03:09:37;;;;;;;12.85;11.35;;;15.40;52.40;;;;;;4984746;28;114322;-81
2023/05/13 03:12:06;;;;;;;11.23;9.98;;;15.30;52.70;;;;;;5001505;28;114581;-81
2023/05/13 03:14:35;;;;;;;10.90;8.88;;;15.30;52.70;;;;;;4984227;28;119644;-81
2023/05/13 03:17:03;;;;;;;11.50;8.70;;;15.30;52.60;;;;;;4984854;28;115614;-81
2023/05/13 03:19:31;;;;;;;10.98;9.02;;;15.30;52.50;;;;;;4984706;28;114333;-81
2023/05/13 03:21:58;;;;;;;11.70;8.93;;;15.30;52.40;;;;;;4985401;28;114483;-81
2023/05/13 03:24:25;;;;;;;10.30;8.32;;;15.40;52.50;;;;;;4984939;28;116062;-80
2023/05/13 03:26:53;;;;;;;8.85;7.28;;;15.40;52.30;;;;;;4984366;28;114787;-81
2023/05/13 03:29:21;;;;;;;9.45;7.47;;;15.50;52.20;;;;;;4984939;28;114836;-80
2023/05/13 03:31:51;;;;;;;10.55;8.88;;;15.40;52.10;;;;;;5001569;28;114296;-80
2023/05/13 03:34:19;;;;;;;8.23;7.43;;;15.50;52.20;;;;;;4983183;28;114890;-80
2023/05/13 03:36:46;;;;;;;8.98;7.68;;;15.50;52.00;;;;;;4983925;28;114564;-81
2023/05/13 03:39:13;;;;;;;9.20;7.80;;;15.50;52.10;;;;;;4985024;28;114083;-81
2023/05/13 03:41:40;;;;;;;8.32;7.43;;;15.50;52.10;;;;;;4968006;28;114569;-81
2023/05/13 03:44:07;;;;;;;9.45;7.15;;;15.50;52.00;;;;;;4983894;28;115219;-82
2023/05/13 03:46:34;;;;;;;13.40;10.35;;;15.50;51.90;;;;;;4983555;28;114591;-82
2023/05/13 03:49:02;;;;;;;17.25;14.27;;;15.50;52.30;;;;;;4984360;28;114531;-81
2023/05/13 03:51:37;;;;;;;12.10;10.57;;;15.50;52.70;;;;;;4969806;28;114045;-81
2023/05/13 03:54:05;;;;;;;11.70;9.20;;;15.40;52.60;;;;;;4983780;28;114913;-81
2023/05/13 03:56:33;;;;;;;10.43;8.27;;;15.30;52.60;;;;;;4984540;28;114865;-80
2023/05/13 03:59:00;;;;;;;12.10;9.55;;;15.30;52.50;;;;;;4987280;28;114331;-81
2023/05/13 04:01:28;;;;;;;11.32;9.70;;;15.30;52.80;;;;;;4992165;28;114291;-82
2023/05/13 04:03:55;;;;;;;13.23;11.70;;;15.30;52.90;;;;;;4975333;28;115364;-82
2023/05/13 04:06:22;;;;;;;11.02;7.85;;;15.20;53.10;;;;;;4978447;28;114699;-81
2023/05/13 04:08:51;;;;;;;13.13;10.93;;;15.20;52.80;;;;;;4981113;28;114451;-81
2023/05/13 04:11:18;;;;;;;9.75;8.27;;;15.20;53.20;;;;;;4981636;28;118910;-82
2023/05/13 04:13:46;;;;;;;9.80;7.97;;;15.20;52.90;;;;;;4982024;28;115173;-81
2023/05/13 04:16:16;;;;;;;8.98;8.05;;;15.20;52.80;;;;;;4982345;28;114597;-82
2023/05/13 04:18:43;;;;;;;10.55;9.45;;;15.20;52.70;;;;;;4983891;28;114668;-83
2023/05/13 04:21:10;;;;;;;11.18;9.85;;;15.30;52.70;;;;;;4995890;28;114675;-82
2023/05/13 04:23:37;;;;;;;14.23;10.98;;;15.30;52.60;;;;;;4999649;28;115081;-80
2023/05/13 04:26:04;;;;;;;13.60;11.20;;;15.40;52.60;;;;;;4963796;28;114801;-80
2023/05/13 04:28:31;;;;;;;11.40;10.20;;;15.30;52.60;;;;;;4983201;28;115367;-81
2023/05/13 04:31:01;;;;;;;12.80;11.02;;;15.20;52.70;;;;;;4984695;28;114521;-82
2023/05/13 04:33:33;;;;;;;;;;;15.20;53.00;;;;;;4995653;28;114955;-80
2023/05/13 04:36:02;;;;;;;11.55;9.80;;;15.10;52.20;;;;;;4979356;28;114627;-81
2023/05/13 04:38:30;;;;;;;11.48;8.77;;;15.10;53.10;;;;;;4964873;28;114329;-81
2023/05/13 04:40:57;;;;;;;10.68;9.18;;;15.20;53.10;;;;;;4982866;28;114403;-81
2023/05/13 04:43:33;;;;;;;12.75;10.13;;;15.20;53.00;;;;;;4963649;28;115276;-80
2023/05/13 04:46:01;;;;;;;11.20;9.10;;;15.30;52.90;;;;;;4991095;28;114991;-80
2023/05/13 04:48:28;;;;;;;9.68;7.18;;;15.30;52.50;;;;;;4981744;28;114220;-80
2023/05/13 04:50:57;;;;;;;8.80;7.88;;;15.30;52.60;;;;;;4977337;28;114224;-81
2023/05/13 04:53:25;;;;;;;10.57;9.02;;;15.40;52.40;;;;;;4980148;28;114914;-80
2023/05/13 04:55:59;;;;;;;12.70;10.10;;;15.50;52.00;;;;;;4990152;28;114581;-81
2023/05/13 04:58:28;;;;;;;10.88;7.60;;;15.60;52.00;;;;;;4996107;28;114423;-81
2023/05/13 05:00:56;;;;;;;9.82;8.18;;;15.50;51.90;;;;;;4983332;28;114279;-81
2023/05/13 05:03:23;;;;;;;8.43;6.97;;;15.60;51.60;;;;;;4983108;28;114837;-81
2023/05/13 05:05:50;;;;;;;9.68;8.68;;;15.60;51.60;;;;;;4983927;28;114592;-81
2023/05/13 05:08:18;;;;;;;8.20;7.40;;;15.70;51.20;;;;;;4974995;28;114472;-81
2023/05/13 05:10:47;;;;;;;8.95;7.32;;;15.70;51.30;;;;;;4982714;28;115289;-81
2023/05/13 05:13:15;;;;;;;8.82;7.47;;;15.70;51.10;;;;;;4979186;28;114921;-81
2023/05/13 05:15:43;;;;;;;11.93;8.07;;;15.70;50.80;;;;;;4985806;28;114570;-81
2023/05/13 05:18:12;;;;;;;12.32;8.57;;;15.80;50.60;;;;;;4986330;28;114608;-81
2023/05/13 05:20:41;;;;;;;10.75;7.53;;;15.80;50.20;;;;;;4985654;28;114597;-80
2023/05/13 05:23:19;;;;;;;13.20;10.35;;;15.80;50.60;;;;;;4980767;28;115119;-81
2023/05/13 05:25:48;;;;;;;11.18;9.43;;;15.90;50.70;;;;;;4983937;28;114630;-81
2023/05/13 05:28:27;;;;;;;13.75;10.50;;;15.90;51.00;;;;;;4981057;28;114438;-81
2023/05/13 05:30:55;;;;;;;10.18;8.85;;;15.90;51.40;;;;;;4982142;28;114734;-81
2023/05/13 05:33:25;;;;;;;16.20;10.25;;;16.00;51.20;;;;;;4964501;28;115519;-81
2023/05/13 05:35:53;;;;;;;14.27;10.70;;;16.10;51.30;;;;;;5002255;28;114756;-81
2023/05/13 05:38:24;;;;;;;10.75;7.82;;;16.20;51.10;;;;;;4949901;28;114377;-81
2023/05/13 05:40:52;;;;;;;9.93;7.40;;;16.20;50.30;;;;;;4986198;28;114212;-80
2023/05/13 05:43:19;;;;;;;10.35;7.75;;;16.20;49.60;;;;;;4985160;28;116053;-82
2023/05/13 05:45:46;;;;;;;9.77;7.93;;;16.20;49.10;;;;;;4986632;28;114631;-81
2023/05/13 05:48:16;;;;;;;10.40;8.07;;;16.20;49.00;;;;;;4986625;28;114563;-81
2023/05/13 05:50:43;;;;;;;10.18;6.90;;;16.20;49.10;;;;;;4987398;28;114557;-81
2023/05/13 05:53:15;;;;;;;8.70;6.10;;;16.20;48.40;;;;;;4990400;28;114814;-81
2023/05/13 05:55:43;;;;;;;10.27;8.02;;;16.20;48.40;;;;;;4987447;28;114442;-81
2023/05/13 05:58:13;;;;;;;9.02;5.78;;;16.20;49.00;;;;;;4987479;28;114551;-81
2023/05/13 06:00:41;;;;;;;10.05;6.70;;;16.20;47.40;;;;;;4970042;28;114244;-81
2023/05/13 06:03:08;;;;;;;10.48;6.97;;;16.10;47.60;;;;;;5001602;28;114989;-82
2023/05/13 06:05:36;;;;;;;10.57;5.50;;;16.10;48.20;;;;;;4980955;28;115474;-81
2023/05/13 06:08:03;;;;;;;6.78;5.53;;;16.20;47.00;;;;;;4980585;28;114460;-82
2023/05/13 06:10:30;;;;;;;9.35;7.25;;;16.20;46.60;;;;;;4977731;28;114430;-82
2023/05/13 06:12:57;;;;;;;7.07;4.55;;;16.30;47.60;;;;;;4986138;28;114926;-80
2023/05/13 06:15:25;;;;;;;7.15;5.70;;;16.30;45.60;;;;;;4978552;28;114667;-81
2023/05/13 06:17:52;;;;;;;8.52;5.60;;;16.40;45.80;;;;;;4980970;28;114283;-81
2023/05/13 06:20:19;;;;;;;9.10;6.93;;;16.50;45.80;;;;;;4969747;28;114714;-80
2023/05/13 06:22:47;;;;;;;7.50;5.30;;;16.60;46.60;;;;;;4985366;28;114964;-81
2023/05/13 06:25:18;;;;;;;5.13;4.15;;;16.70;45.30;;;;;;4982154;28;114740;-81
2023/05/13 06:27:45;;;;;;;6.15;4.40;;;16.70;44.30;;;;;;4979799;28;114241;-80
2023/05/13 06:30:12;;;;;;;5.22;4.00;;;16.70;44.20;;;;;;4985014;28;114301;-81
2023/05/13 06:32:41;;;;;;;8.52;5.20;;;16.80;43.40;;;;;;4980548;28;115224;-80
2023/05/13 06:35:26;;;;;;;7.88;6.20;;;16.80;44.00;;;;;;4985912;28;114704;-80
2023/05/13 06:37:54;;;;;;;8.15;5.65;;;16.80;45.00;;;;;;4976519;28;114180;-80
2023/05/13 06:40:21;;;;;;;4.65;3.40;;;16.80;44.10;;;;;;4999863;28;114160;-80
2023/05/13 06:42:50;;;;;;;5.65;3.78;;;16.80;42.20;;;;;;4980739;28;114866;-80
2023/05/13 06:45:27;;;;;;;5.55;3.72;;;16.80;41.90;;;;;;4980210;28;115968;-80
2023/05/13 06:47:55;;;;;;;4.10;3.17;;;16.80;41.90;;;;;;4985112;28;114332;-81
2023/05/13 06:50:22;;;;;;;5.45;3.58;;;16.80;41.40;;;;;;4986649;28;114083;-80
2023/05/13 06:52:50;;;;;;;6.35;3.28;;;16.80;41.80;;;;;;4978924;28;114931;-79
2023/05/13 06:55:18;;;;;;;5.13;3.33;;;16.90;41.30;;;;;;4984036;28;115305;-80
2023/05/13 06:57:46;;;;;;;8.95;4.90;;;17.00;41.00;;;;;;4985204;28;114351;-80
2023/05/13 07:00:13;;;;;;;5.60;3.22;;;16.90;42.30;;;;;;4987045;28;114232;-80
2023/05/13 07:02:41;;;;;;;10.00;3.97;;;16.90;42.00;;;;;;4984216;28;115366;-80
2023/05/13 07:05:09;;;;;;;8.32;5.88;;;16.90;41.90;;;;;;4984244;28;117030;-80
2023/05/13 07:07:39;;;;;;;5.90;4.35;;;16.80;43.80;;;;;;5001517;28;114336;-80
2023/05/13 07:10:07;;;;;;;8.32;5.00;;;16.80;42.60;;;;;;4986810;28;114210;-80
2023/05/13 07:12:34;;;;;;;6.63;5.25;;;16.90;42.90;;;;;;5000783;28;114928;-81
2023/05/13 07:15:01;;;;;;;5.25;4.13;;;16.80;43.60;;;;;;4999501;28;114702;-80
2023/05/13 07:17:30;;;;;;;7.10;5.15;;;16.80;42.40;;;;;;4985277;28;114372;-81
2023/05/13 07:20:00;;;;;;;5.95;4.22;;;16.90;43.30;;;;;;4986182;28;114356;-80
2023/05/13 07:22:27;;;;;;;5.57;4.35;;;16.90;42.30;;;;;;4983379;28;116193;-80
2023/05/13 07:24:55;;;;;;;8.18;4.80;;;16.90;42.10;;;;;;5000293;28;114635;-80
2023/05/13 07:27:23;;;;;;;8.90;4.22;;;16.80;41.80;;;;;;5000550;28;115025;-80
2023/05/13 07:30:26;;;;;;;5.55;3.63;;;16.90;41.30;;;;;;4985989;28;114469;-80
2023/05/13 07:32:56;;;;;;;6.43;4.68;;;17.00;41.50;;;;;;4980950;28;115657;-80
2023/05/13 07:35:26;;;;;;;5.82;2.95;;;16.90;41.90;;;;;;4983834;28;114729;-80
2023/05/13 07:38:02;;;;;;;6.63;4.72;;;16.90;39.70;;;;;;4983772;28;114517;-80
2023/05/13 07:40:31;;;;;;;5.80;3.85;;;16.70;41.20;;;;;;4982669;28;114628;-80
2023/05/13 07:42:59;;;;;;;7.05;4.07;;;16.70;40.50;;;;;;4967958;28;118373;-80
2023/05/13 07:45:30;;;;;;;5.07;3.33;;;16.70;40.70;;;;;;4985518;28;114604;-81
2023/05/13 07:47:57;;;;;;;6.45;3.20;;;16.70;40.00;;;;;;4984478;28;114312;-80
2023/05/13 07:50:24;;;;;;;6.75;4.15;;;16.90;39.80;;;;;;4985649;28;114589;-81
2023/05/13 07:52:52;;;;;;;5.63;3.20;;;16.90;40.50;;;;;;4999670;28;115705;-81
2023/05/13 07:55:25;;;;;;;6.32;3.00;;;16.90;39.00;;;;;;4984521;28;114816;-81
2023/05/13 07:58:21;;;;;;;6.20;3.53;;;16.90;38.70;;;;;;4972818;28;115179;-81
2023/05/13 08:00:49;;;;;;;5.57;2.78;;;16.90;39.40;;;;;;4979998;28;114536;-80
2023/05/13 08:03:16;;;;;;;4.68;3.53;;;16.90;38.70;;;;;;4981912;28;114899;-80
2023/05/13 08:05:47;;;;;;;7.78;5.13;;;16.80;39.40;;;;;;4981145;28;114729;-80
2023/05/13 08:08:14;;;;;;;6.43;3.30;;;16.90;41.50;;;;;;4985273;28;114400;-81
2023/05/13 08:10:41;;;;;;;6.32;3.50;;;17.00;39.30;;;;;;5001256;28;114521;-81
2023/05/13 08:13:09;;;;;;;10.07;6.40;;;17.10;39.20;;;;;;4977302;28;114890;-81
2023/05/13 08:15:37;;;;;;;6.78;4.50;;;17.20;39.70;;;;;;4984873;28;115389;-81
2023/05/13 08:18:04;;;;;;;6.90;4.20;;;17.30;40.70;;;;;;4964575;28;114608;-80
2023/05/13 08:20:32;;;;;;;6.50;4.82;;;17.40;40.20;;;;;;4983725;28;114446;-81
2023/05/13 08:23:01;;;;;;;6.85;5.18;;;17.40;39.80;;;;;;4979269;28;115328;-81
2023/05/13 08:25:28;;;;;;;6.55;4.50;;;17.30;40.80;;;;;;4982109;28;116706;-81
2023/05/13 08:27:56;;;;;;;10.25;5.90;;;17.30;40.70;;;;;;4984303;28;114310;-81
2023/05/13 08:30:29;;;;;;;6.90;5.22;;;17.30;41.20;;;;;;4985511;28;114367;-81
2023/05/13 08:32:56;;;;;;;6.47;4.80;;;17.40;41.00;;;;;;4983789;28;114946;-79
2023/05/13 08:35:26;;;;;;;7.45;5.70;;;17.40;41.20;;;;;;4976035;28;114627;-80
2023/05/13 08:37:58;;;;;;;7.70;4.68;;;17.50;41.60;;;;;;4965677;28;114360;-80
2023/05/13 08:40:25;;;;;;;7.47;4.80;;;17.50;41.00;;;;;;4985077;28;114342;-80
2023/05/13 08:42:57;;;;;;;6.53;4.90;;;17.50;40.40;;;;;;4999772;28;114782;-82
2023/05/13 08:45:25;;;;;;;6.47;4.10;;;17.50;40.90;;;;;;4981079;28;114547;-80
2023/05/13 08:48:00;;;;;;;7.57;4.30;;;17.50;40.40;;;;;;4983733;28;114364;-81
2023/05/13 08:50:28;;;;;;;6.45;4.32;;;17.60;39.80;;;;;;5002518;28;114271;-80
2023/05/13 08:53:30;;;;;;;6.47;4.63;;;17.60;40.20;;;;;;4987719;28;114947;-80
2023/05/13 08:55:57;;;;;;;12.98;5.63;;;17.50;39.80;;;;;;4976861;28;114960;-80
2023/05/13 08:58:25;;;;;;;9.77;3.95;;;17.50;40.90;;;;;;5003203;28;114466;-80
2023/05/13 09:00:57;;;;;;;7.13;4.50;;;17.80;40.40;;;;;;5003239;28;114456;-80
2023/05/13 09:03:25;;;;;;;6.45;4.70;;;18.10;40.60;;;;;;5002615;28;115322;-80
2023/05/13 09:05:55;;;;;;;7.38;4.35;;;18.20;40.20;;;;;;4984113;28;117141;-80
2023/05/13 09:08:45;;;;;;;7.25;4.68;;;18.20;39.50;;;;;;4987868;28;114360;-80
2023/05/13 09:11:12;;;;;;;9.35;5.72;;;18.20;39.70;;;;;;4970267;28;114355;-81
2023/05/13 09:13:41;;;;;;;7.40;5.15;;;18.20;40.30;;;;;;4969165;28;114947;-80
2023/05/13 09:16:13;;;;;;;5.90;5.10;;;18.20;40.30;;;;;;4970059;28;116819;-81
2023/05/13 09:18:42;;;;;;;13.57;5.85;;;18.20;40.40;;;;;;4985377;28;114576;-81
2023/05/13 09:21:29;;;;;;;9.90;5.78;;;18.40;40.70;;;;;;4985842;28;114525;-81
2023/05/13 09:24:17;;;;;;;7.63;5.30;;;18.60;40.20;;;;;;4985724;28;115431;-80
2023/05/13 09:26:45;;;;;;;8.63;5.80;;;18.60;40.00;;;;;;4986886;28;116566;-80
2023/05/13 09:29:22;;;;;;;8.30;5.80;;;18.40;40.00;;;;;;4987936;28;117518;-80
2023/05/13 09:31:55;;;;;;;11.45;6.68;;;18.40;40.40;;;;;;4987234;28;114610;-80
2023/05/13 09:34:30;;;;;;;10.48;5.30;;;18.40;40.80;;;;;;5002545;28;114944;-80
2023/05/13 09:37:07;;;;;;;11.55;5.70;;;18.40;40.20;;;;;;4987045;28;114679;-80
2023/05/13 09:39:40;;;;;;;9.52;5.28;;;18.40;40.40;;;;;;4986885;28;114542;-80
2023/05/13 09:42:15;;;;;;;8.40;5.00;;;18.20;40.10;;;;;;4972963;28;114402;-81
2023/05/13 09:44:43;;;;;;;14.70;5.13;;;18.10;40.00;;;;;;4986976;28;115163;-80
2023/05/13 09:47:13;;;;;;;7.80;5.18;;;17.90;40.20;;;;;;4983697;28;115149;-79
2023/05/13 09:49:41;;;;;;;7.18;4.53;;;17.80;39.90;;;;;;4982163;28;116132;-79
2023/05/13 09:52:10;;;;;;;9.52;5.43;;;17.80;40.40;;;;;;4985489;28;114317;-79
2023/05/13 09:54:37;;;;;;;6.28;5.30;;;17.80;40.70;;;;;;4983553;28;115247;-81
2023/05/13 09:57:05;;;;;;;8.70;5.90;;;17.80;41.50;;;;;;4986700;28;115403;-81
2023/05/13 09:59:35;;;;;;;8.25;6.35;;;17.70;41.30;;;;;;4982978;28;116934;-81
2023/05/13 10:02:05;;;;;;;8.68;5.95;;;17.70;41.50;;;;;;4974573;28;117405;-82
2023/05/13 10:04:37;;;;;;;8.60;6.10;;;17.60;41.80;;;;;;4985498;28;114537;-81
2023/05/13 10:07:05;;;;;;;7.28;6.50;;;17.40;41.70;;;;;;4967751;28;116005;-81
2023/05/13 10:09:36;;;;;;;11.52;6.53;;;17.30;41.40;;;;;;4964826;28;114717;-79
2023/05/13 10:12:06;;;;;;;9.10;6.15;;;17.20;41.90;;;;;;4986849;28;114795;-81
2023/05/13 10:14:37;;;;;;;9.48;6.55;;;17.20;42.20;;;;;;4983178;28;119362;-79
2023/05/13 10:17:05;;;;;;;8.38;5.97;;;17.10;42.50;;;;;;4984016;28;114694;-79
2023/05/13 10:19:33;;;;;;;11.93;7.50;;;17.10;43.00;;;;;;5002450;28;114565;-79
2023/05/13 10:22:08;;;;;;;9.48;7.13;;;17.00;43.00;;;;;;5002436;28;114550;-80
2023/05/13 10:24:36;;;;;;;8.57;6.47;;;17.00;43.20;;;;;;4982971;28;115632;-78
2023/05/13 10:27:06;;;;;;;8.52;6.47;;;16.90;43.30;;;;;;4982329;28;114762;-81
2023/05/13 10:29:35;;;;;;;12.15;6.65;;;16.80;43.40;;;;;;4986672;28;114579;-81
2023/05/13 10:32:03;;;;;;;8.48;6.80;;;16.80;43.40;;;;;;4983139;28;115639;-81
2023/05/13 10:34:32;;;;;;;9.95;7.10;;;16.90;43.40;;;;;;4984208;28;115000;-81
2023/05/13 10:37:38;;;;;;;10.27;6.40;;;16.90;43.30;;;;;;4983284;28;114670;-81
2023/05/13 10:40:30;;;;;;;9.68;6.28;;;16.80;43.40;;;;;;4942137;28;114377;-80
2023/05/13 10:43:16;;;;;;;12.73;5.78;;;16.90;43.70;;;;;;4943293;28;115287;-81
2023/05/13 10:45:46;;;;;;;8.40;5.90;;;16.90;43.80;;;;;;4970473;28;116350;-82
2023/05/13 10:48:13;;;;;;;10.10;5.93;;;16.80;43.70;;;;;;4998082;28;115223;-81
2023/05/13 10:51:02;;;;;;;8.38;6.10;;;16.80;43.70;;;;;;4983158;28;114441;-81
2023/05/13 10:53:30;;;;;;;9.27;5.93;;;16.80;43.40;;;;;;4985599;28;114470;-80
2023/05/13 10:56:01;;;;;;;10.13;6.82;;;16.70;44.00;;;;;;4985372;28;115523;-82
2023/05/13 10:58:36;;;;;;;9.23;6.55;;;16.70;43.90;;;;;;4980753;28;115235;-81
2023/05/13 11:01:30;;;;;;;10.80;7.18;;;16.70;44.10;;;;;;4980854;28;115791;-82
2023/05/13 11:04:02;;;;;;;8.50;6.18;;;16.70;43.90;;;;;;4980904;28;114362;-81
2023/05/13 11:06:38;;;;;;;8.63;5.75;;;16.60;43.60;;;;;;4967650;28;114949;-81
2023/05/13 11:09:06;;;;;;;8.43;5.95;;;16.50;44.50;;;;;;4983136;28;114731;-81
2023/05/13 11:11:34;;;;;;;9.13;6.10;;;16.50;44.00;;;;;;4986147;28;115720;-82
2023/05/13 11:14:06;;;;;;;9.00;5.82;;;16.40;44.50;;;;;;4985436;28;114469;-82
2023/05/13 11:16:35;;;;;;;8.88;5.90;;;16.50;43.80;;;;;;4978625;28;117993;-82
2023/05/13 11:19:03;;;;;;;10.40;6.28;;;16.40;44.20;;;;;;4982382;28;116993;-80
2023/05/13 11:21:32;;;;;;;10.65;5.68;;;16.40;44.30;;;;;;4984089;28;114227;-81
2023/05/13 11:24:02;;;;;;;10.45;6.10;;;16.50;44.20;;;;;;4983406;28;114385;-81
2023/05/13 11:26:55;;;;;;;11.23;6.38;;;16.50;44.10;;;;;;4997971;28;114870;-82
2023/05/13 11:29:27;;;;;;;9.40;6.15;;;16.70;44.20;;;;;;4976971;28;115973;-83
2023/05/13 11:31:57;;;;;;;9.00;5.68;;;16.60;44.30;;;;;;4985176;28;114399;-83
2023/05/13 11:34:30;;;;;;;7.93;6.05;;;16.70;44.10;;;;;;4988911;28;114484;-82
2023/05/13 11:37:04;;;;;;;8.95;5.68;;;16.70;44.20;;;;;;4982926;28;114988;-81
2023/05/13 11:39:31;;;;;;;8.13;5.75;;;16.70;43.60;;;;;;4989824;28;116043;-82
2023/05/13 11:42:00;;;;;;;9.55;5.55;;;16.60;44.20;;;;;;4988640;28;114494;-82
2023/05/13 11:44:30;;;;;;;7.60;5.63;;;16.70;44.40;;;;;;4985545;28;114606;-82
2023/05/13 11:47:00;;;;;;;7.88;5.78;;;16.70;44.10;;;;;;4967443;28;115076;-82
2023/05/13 11:49:32;;;;;;;10.45;6.35;;;16.70;44.50;;;;;;4984533;28;114845;-82
2023/05/13 11:52:08;;;;;;;7.40;6.10;;;16.70;44.00;;;;;;5000758;28;114592;-83
2023/05/13 11:54:47;;;;;;;8.98;5.47;;;16.70;43.90;;;;;;4984091;28;114294;-82
2023/05/13 11:57:27;;;;;;;8.82;6.20;;;16.70;43.60;;;;;;4983249;28;115369;-82
2023/05/13 11:59:58;;;;;;;7.30;5.78;;;16.70;43.60;;;;;;4983982;28;114575;-83
2023/05/13 12:02:25;;;;;;;7.35;4.88;;;16.70;43.60;;;;;;4985909;28;114513;-82
2023/05/13 12:04:53;;;;;;;9.10;5.57;;;16.70;43.00;;;;;;4985451;28;114578;-82
2023/05/13 12:07:22;;;;;;;8.05;4.93;;;16.70;42.90;;;;;;4984315;28;114930;-82
2023/05/13 12:09:50;;;;;;;6.70;5.20;;;16.70;42.60;;;;;;4984833;28;114630;-82
2023/05/13 12:12:17;;;;;;;11.68;5.10;;;16.80;42.80;;;;;;4984520;28;114712;-80
2023/05/13 12:14:45;;;;;;;8.18;4.75;;;16.80;42.60;;;;;;4999849;28;114470;-81
2023/05/13 12:17:13;;;;;;;8.65;4.90;;;16.80;42.30;;;;;;4984348;28;117697;-81
2023/05/13 12:19:40;;;;;;;6.15;4.38;;;16.90;41.90;;;;;;4981162;28;115941;-82
2023/05/13 12:22:07;;;;;;;7.35;4.18;;;16.90;42.30;;;;;;4983260;28;114462;-82
2023/05/13 12:24:35;;;;;;;7.40;4.47;;;16.90;41.70;;;;;;4981112;28;114411;-82
2023/05/13 12:27:06;;;;;;;6.22;4.20;;;16.90;41.60;;;;;;4981963;28;115704;-81
2023/05/13 12:29:41;;;;;;;5.32;3.80;;;16.80;40.50;;;;;;4983298;28;118160;-81
2023/05/13 12:32:10;;;;;;;8.00;3.92;;;16.80;40.60;;;;;;4984775;28;114574;-81
2023/05/13 12:34:38;;;;;;;7.05;3.88;;;16.70;40.80;;;;;;4998391;28;114196;-81
2023/05/13 12:37:11;;;;;;;7.65;4.07;;;16.80;40.30;;;;;;4982355;28;115360;-81
2023/05/13 12:39:40;;;;;;;6.07;3.65;;;16.80;40.40;;;;;;4983175;28;114622;-82
2023/05/13 12:42:17;;;;;;;6.10;3.67;;;16.80;40.60;;;;;;4984207;28;114423;-81
2023/05/13 12:44:44;;;;;;;5.97;3.75;;;16.80;40.50;;;;;;4985514;28;114329;-81
2023/05/13 12:47:13;;;;;;;7.13;3.70;;;16.80;40.50;;;;;;4976674;28;115330;-80
2023/05/13 12:49:59;;;;;;;8.85;4.20;;;16.90;40.40;;;;;;4997380;28;115262;-81